N720CC EGLF-ESOW
Flight info
| Callsign | N720CC |
|---|---|
| Flight time | N/A |
| Altitude | 43000 |
| Route | MAXIT DCT OCK UM185 DIGSU N866 BANEM M604 GIVPO DCT TOPPA DCT OMIMA DCT GIKIV N873 GOTEX DCT DETSO N873 TORVA |
| Aircraft | C750/M-SBDE3FGHRWXY/S |
Departure
| Time | N/A |
|---|---|
| Airport | Farnborough Airport (EGLF) |
Arrival
| Time | 2026-04-17 17:04 |
|---|---|
| Airport | Stockholm Västerås Airport (ESOW) |
| Time | Latitude | Longitude | Altitude | Speed | Heading |
|---|---|---|---|---|---|
| 2026-04-17 15:53 | 53.64610 | 4.00139 | 43182 ft | 545 kts | 45° |
| 2026-04-17 15:53 | 53.67108 | 4.04760 | 43174 ft | 545 kts | 47° |
| 2026-04-17 15:54 | 53.72176 | 4.14254 | 43174 ft | 544 kts | 45° |
| 2026-04-17 15:54 | 53.77343 | 4.23620 | 43172 ft | 544 kts | 46° |
| 2026-04-17 15:55 | 53.82419 | 4.33137 | 43189 ft | 544 kts | 46° |
| 2026-04-17 15:55 | 53.87538 | 4.42558 | 43174 ft | 544 kts | 46° |
| 2026-04-17 15:56 | 53.92585 | 4.52033 | 43178 ft | 544 kts | 46° |
| 2026-04-17 15:56 | 53.97685 | 4.61543 | 43177 ft | 543 kts | 46° |
| 2026-04-17 15:57 | 54.01892 | 4.69468 | 43174 ft | 543 kts | 46° |
| 2026-04-17 15:57 | 54.06968 | 4.79035 | 43178 ft | 543 kts | 46° |
| 2026-04-17 15:58 | 54.12020 | 4.88601 | 43196 ft | 543 kts | 46° |
| 2026-04-17 15:58 | 54.17060 | 4.98182 | 43180 ft | 542 kts | 46° |
| 2026-04-17 15:59 | 54.22088 | 5.07777 | 43187 ft | 542 kts | 47° |
| 2026-04-17 15:59 | 54.27077 | 5.17336 | 43197 ft | 541 kts | 47° |
| 2026-04-17 16:00 | 54.32092 | 5.26981 | 43186 ft | 541 kts | 47° |
| 2026-04-17 16:00 | 54.37082 | 5.36619 | 43195 ft | 541 kts | 47° |
| 2026-04-17 16:01 | 54.42078 | 5.46305 | 43192 ft | 541 kts | 47° |
| 2026-04-17 16:01 | 54.47032 | 5.55949 | 43191 ft | 541 kts | 47° |
| 2026-04-17 16:02 | 54.52004 | 5.65664 | 43197 ft | 540 kts | 47° |
| 2026-04-17 16:02 | 54.56965 | 5.75400 | 43201 ft | 540 kts | 47° |
| 2026-04-17 16:03 | 54.61914 | 5.85149 | 43206 ft | 540 kts | 47° |
| 2026-04-17 16:03 | 54.66859 | 5.94932 | 43197 ft | 537 kts | 47° |
| 2026-04-17 16:04 | 54.71753 | 6.04649 | 43198 ft | 540 kts | 47° |
| 2026-04-17 16:04 | 54.76686 | 6.14486 | 43206 ft | 540 kts | 47° |
| 2026-04-17 16:05 | 54.81597 | 6.24316 | 43202 ft | 539 kts | 47° |
| 2026-04-17 16:05 | 54.86474 | 6.34121 | 43208 ft | 538 kts | 47° |
| 2026-04-17 16:06 | 54.91362 | 6.43986 | 43214 ft | 538 kts | 47° |
| 2026-04-17 16:06 | 54.96239 | 6.53871 | 43214 ft | 538 kts | 47° |
| 2026-04-17 16:07 | 55.01059 | 6.63845 | 43210 ft | 538 kts | 50° |
| 2026-04-17 16:07 | 55.05645 | 6.74190 | 43224 ft | 538 kts | 51° |
| 2026-04-17 16:08 | 55.10218 | 6.84436 | 43224 ft | 539 kts | 50° |
| 2026-04-17 16:08 | 55.14809 | 6.94829 | 43220 ft | 539 kts | 51° |
| 2026-04-17 16:09 | 55.19395 | 7.05226 | 43231 ft | 539 kts | 51° |
| 2026-04-17 16:09 | 55.23975 | 7.15667 | 43227 ft | 540 kts | 51° |
| 2026-04-17 16:10 | 55.28540 | 7.26110 | 43228 ft | 539 kts | 51° |
| 2026-04-17 16:10 | 55.33088 | 7.36562 | 43235 ft | 540 kts | 51° |
| 2026-04-17 16:11 | 55.37610 | 7.47001 | 43231 ft | 539 kts | 51° |
| 2026-04-17 16:11 | 55.42155 | 7.57532 | 43226 ft | 539 kts | 51° |
| 2026-04-17 16:12 | 55.46687 | 7.68083 | 43227 ft | 539 kts | 51° |
| 2026-04-17 16:12 | 55.51204 | 7.78641 | 43236 ft | 539 kts | 51° |
| 2026-04-17 16:13 | 55.55705 | 7.89209 | 43236 ft | 538 kts | 51° |
| 2026-04-17 16:13 | 55.60173 | 7.99745 | 43230 ft | 538 kts | 51° |
| 2026-04-17 16:14 | 55.66900 | 8.15693 | 43234 ft | 538 kts | 51° |
| 2026-04-17 16:14 | 55.71365 | 8.26335 | 43237 ft | 538 kts | 52° |
| 2026-04-17 16:15 | 55.75812 | 8.36982 | 43240 ft | 538 kts | 52° |
| 2026-04-17 16:15 | 55.80259 | 8.47674 | 43241 ft | 538 kts | 52° |
| 2026-04-17 16:16 | 55.84710 | 8.58425 | 43236 ft | 539 kts | 52° |
| 2026-04-17 16:16 | 55.89120 | 8.69123 | 43247 ft | 539 kts | 52° |
| 2026-04-17 16:17 | 55.93555 | 8.79927 | 43251 ft | 539 kts | 52° |
| 2026-04-17 16:17 | 55.97990 | 8.90781 | 43251 ft | 539 kts | 52° |
| 2026-04-17 16:18 | 56.02380 | 9.01571 | 43246 ft | 539 kts | 52° |
| 2026-04-17 16:18 | 56.06849 | 9.12364 | 43219 ft | 538 kts | 48° |
| 2026-04-17 16:19 | 56.12058 | 9.21864 | 43247 ft | 536 kts | 42° |
| 2026-04-17 16:19 | 56.17326 | 9.31389 | 43249 ft | 537 kts | 44° |
| 2026-04-17 16:20 | 56.22507 | 9.40937 | 43246 ft | 536 kts | 43° |
| 2026-04-17 16:20 | 56.27769 | 9.50487 | 43246 ft | 536 kts | 44° |
| 2026-04-17 16:21 | 56.32979 | 9.60144 | 43248 ft | 536 kts | 44° |
| 2026-04-17 16:21 | 56.38160 | 9.69651 | 43247 ft | 536 kts | 44° |
| 2026-04-17 16:22 | 56.43332 | 9.79288 | 43255 ft | 536 kts | 44° |
| 2026-04-17 16:22 | 56.48537 | 9.88947 | 43254 ft | 536 kts | 44° |
| 2026-04-17 16:23 | 56.53724 | 9.98670 | 43254 ft | 536 kts | 44° |
| 2026-04-17 16:23 | 56.58876 | 10.08329 | 43255 ft | 536 kts | 44° |
| 2026-04-17 16:24 | 56.64048 | 10.18088 | 43249 ft | 536 kts | 44° |
| 2026-04-17 16:24 | 56.69214 | 10.27863 | 43257 ft | 535 kts | 44° |
| 2026-04-17 16:25 | 56.74333 | 10.37599 | 43263 ft | 535 kts | 45° |
| 2026-04-17 16:25 | 56.79486 | 10.47437 | 43263 ft | 535 kts | 45° |
| 2026-04-17 16:26 | 56.84596 | 10.57233 | 43262 ft | 535 kts | 45° |
| 2026-04-17 16:26 | 56.89723 | 10.67107 | 43264 ft | 535 kts | 45° |
| 2026-04-17 16:27 | 56.94854 | 10.77028 | 43267 ft | 535 kts | 45° |
| 2026-04-17 16:27 | 56.99937 | 10.86900 | 43267 ft | 535 kts | 45° |
| 2026-04-17 16:28 | 57.05030 | 10.96833 | 43267 ft | 535 kts | 45° |
| 2026-04-17 16:28 | 57.10089 | 11.06742 | 43266 ft | 535 kts | 45° |
| 2026-04-17 16:29 | 57.15205 | 11.16807 | 43263 ft | 535 kts | 45° |
| 2026-04-17 16:29 | 57.20297 | 11.26867 | 43260 ft | 535 kts | 45° |
| 2026-04-17 16:30 | 57.25173 | 11.36676 | 43264 ft | 535 kts | 46° |
| 2026-04-17 16:30 | 57.30190 | 11.46873 | 43273 ft | 535 kts | 46° |
| 2026-04-17 16:31 | 57.35154 | 11.56937 | 43273 ft | 535 kts | 46° |
| 2026-04-17 16:31 | 57.40153 | 11.67179 | 43275 ft | 535 kts | 46° |
| 2026-04-17 16:32 | 57.45156 | 11.77422 | 43269 ft | 535 kts | 46° |
| 2026-04-17 16:32 | 57.47409 | 11.82071 | 43275 ft | 535 kts | 47° |
| 2026-04-17 16:33 | 57.52345 | 11.92267 | 43272 ft | 535 kts | 47° |
| 2026-04-17 16:33 | 57.57339 | 12.02621 | 43272 ft | 536 kts | 47° |
| 2026-04-17 16:34 | 57.62220 | 12.12793 | 43276 ft | 535 kts | 47° |
| 2026-04-17 16:34 | 57.67175 | 12.23162 | 43277 ft | 536 kts | 47° |
| 2026-04-17 16:35 | 57.72140 | 12.33597 | 43270 ft | 535 kts | 47° |
| 2026-04-17 16:35 | 57.77060 | 12.43985 | 43270 ft | 535 kts | 47° |
| 2026-04-17 16:36 | 57.82002 | 12.54466 | 43268 ft | 535 kts | 47° |
| 2026-04-17 16:36 | 57.86948 | 12.65003 | 43256 ft | 535 kts | 47° |
| 2026-04-17 16:37 | 57.91842 | 12.75476 | 43258 ft | 535 kts | 47° |
| 2026-04-17 16:37 | 57.96745 | 12.86016 | 43256 ft | 535 kts | 47° |
| 2026-04-17 16:38 | 58.01649 | 12.96606 | 43245 ft | 535 kts | 47° |
| 2026-04-17 16:38 | 58.06486 | 13.07099 | 43254 ft | 535 kts | 47° |
| 2026-04-17 16:39 | 58.11392 | 13.17788 | 43250 ft | 534 kts | 48° |
| 2026-04-17 16:39 | 58.16236 | 13.28391 | 43256 ft | 534 kts | 48° |
| 2026-04-17 16:40 | 58.21086 | 13.39056 | 43253 ft | 533 kts | 48° |
| 2026-04-17 16:40 | 58.25911 | 13.49715 | 43257 ft | 533 kts | 48° |
| 2026-04-17 16:41 | 58.30693 | 13.60333 | 42341 ft | 517 kts | 48° |
| 2026-04-17 16:41 | 58.32979 | 13.65425 | 41455 ft | 509 kts | 48° |
| 2026-04-17 16:41 | 58.35270 | 13.70533 | 40596 ft | 502 kts | 48° |
| 2026-04-17 16:42 | 58.37441 | 13.75386 | 39809 ft | 496 kts | 48° |
| 2026-04-17 16:42 | 58.39642 | 13.80319 | 39038 ft | 489 kts | 48° |
| 2026-04-17 16:42 | 58.41827 | 13.85228 | 38110 ft | 482 kts | 48° |
| 2026-04-17 16:42 | 58.43962 | 13.90033 | 37212 ft | 475 kts | 48° |
| 2026-04-17 16:43 | 58.45349 | 13.93160 | 36633 ft | 470 kts | 48° |
| 2026-04-17 16:43 | 58.47450 | 13.97903 | 35782 ft | 463 kts | 48° |
| 2026-04-17 16:43 | 58.49508 | 14.02558 | 34959 ft | 457 kts | 48° |
| 2026-04-17 16:43 | 58.52223 | 14.08714 | 33796 ft | 453 kts | 48° |
| 2026-04-17 16:44 | 58.53590 | 14.11819 | 32757 ft | 454 kts | 48° |
| 2026-04-17 16:44 | 58.55638 | 14.16478 | 31328 ft | 458 kts | 48° |
| 2026-04-17 16:44 | 58.57616 | 14.20998 | 31161 ft | 438 kts | 48° |
| 2026-04-17 16:44 | 58.59632 | 14.25598 | 30615 ft | 455 kts | 47° |
| 2026-04-17 16:45 | 58.61620 | 14.30139 | 29972 ft | 452 kts | 48° |
| 2026-04-17 16:45 | 58.63635 | 14.34804 | 29378 ft | 448 kts | 49° |
| 2026-04-17 16:45 | 58.65626 | 14.39424 | 28792 ft | 445 kts | 49° |
| 2026-04-17 16:45 | 58.67601 | 14.43987 | 28196 ft | 442 kts | 49° |
| 2026-04-17 16:46 | 58.69564 | 14.48524 | 27616 ft | 438 kts | 49° |
| 2026-04-17 16:46 | 58.71478 | 14.52976 | 27045 ft | 435 kts | 49° |
| 2026-04-17 16:46 | 58.73395 | 14.57446 | 26474 ft | 431 kts | 49° |
| 2026-04-17 16:46 | 58.75293 | 14.61872 | 25912 ft | 427 kts | 49° |
| 2026-04-17 16:47 | 58.77189 | 14.66297 | 25345 ft | 424 kts | 49° |
| 2026-04-17 16:47 | 58.79058 | 14.70672 | 24794 ft | 420 kts | 50° |
| 2026-04-17 16:47 | 58.80916 | 14.75034 | 24239 ft | 417 kts | 50° |
| 2026-04-17 16:47 | 58.82725 | 14.79285 | 23670 ft | 414 kts | 50° |
| 2026-04-17 16:48 | 58.84550 | 14.83579 | 23108 ft | 410 kts | 50° |
| 2026-04-17 16:48 | 58.86326 | 14.87766 | 22582 ft | 408 kts | 50° |
| 2026-04-17 16:48 | 58.88121 | 14.92009 | 22041 ft | 405 kts | 50° |
| 2026-04-17 16:48 | 58.89895 | 14.96209 | 21506 ft | 402 kts | 50° |
| 2026-04-17 16:49 | 58.91656 | 15.00384 | 20980 ft | 399 kts | 50° |
| 2026-04-17 16:49 | 58.93402 | 15.04531 | 20465 ft | 396 kts | 51° |
| 2026-04-17 16:49 | 58.95139 | 15.08663 | 19937 ft | 393 kts | 51° |
| 2026-04-17 16:49 | 58.96855 | 15.12753 | 19420 ft | 390 kts | 51° |
| 2026-04-17 16:50 | 58.98563 | 15.16833 | 18910 ft | 387 kts | 51° |
| 2026-04-17 16:50 | 59.00235 | 15.20831 | 18383 ft | 384 kts | 51° |
| 2026-04-17 16:50 | 59.01909 | 15.24844 | 17859 ft | 381 kts | 51° |
| 2026-04-17 16:50 | 59.03573 | 15.28837 | 17367 ft | 378 kts | 51° |
| 2026-04-17 16:51 | 59.05224 | 15.32807 | 16864 ft | 376 kts | 51° |
| 2026-04-17 16:51 | 59.06855 | 15.36735 | 16532 ft | 370 kts | 51° |
| 2026-04-17 16:51 | 59.08482 | 15.40657 | 16410 ft | 372 kts | 51° |
| 2026-04-17 16:51 | 59.10106 | 15.44579 | 16294 ft | 372 kts | 51° |
| 2026-04-17 16:52 | 59.11722 | 15.48491 | 15936 ft | 375 kts | 51° |
| 2026-04-17 16:52 | 59.13179 | 15.52676 | 15411 ft | 370 kts | 60° |
| 2026-04-17 16:52 | 59.14299 | 15.57093 | 14938 ft | 367 kts | 65° |
| 2026-04-17 16:52 | 59.15323 | 15.61601 | 14482 ft | 364 kts | 65° |
| 2026-04-17 16:53 | 59.16438 | 15.66039 | 13856 ft | 363 kts | 62° |
| 2026-04-17 16:53 | 59.17652 | 15.70315 | 13238 ft | 356 kts | 60° |
| 2026-04-17 16:53 | 59.18812 | 15.74524 | 12795 ft | 352 kts | 62° |
| 2026-04-17 16:53 | 59.19932 | 15.78761 | 12343 ft | 350 kts | 62° |
| 2026-04-17 16:54 | 59.21038 | 15.82986 | 11899 ft | 348 kts | 62° |
| 2026-04-17 16:54 | 59.22138 | 15.87181 | 11475 ft | 345 kts | 62° |
| 2026-04-17 16:54 | 59.23204 | 15.91239 | 11040 ft | 326 kts | 62° |
| 2026-04-17 16:54 | 59.24211 | 15.95083 | 10600 ft | 310 kts | 62° |
| 2026-04-17 16:55 | 59.25156 | 15.98701 | 10161 ft | 297 kts | 62° |
| 2026-04-17 16:55 | 59.26064 | 16.02182 | 9679 ft | 286 kts | 62° |
| 2026-04-17 16:55 | 59.26955 | 16.05599 | 9187 ft | 278 kts | 62° |
| 2026-04-17 16:55 | 59.27820 | 16.08926 | 8723 ft | 273 kts | 62° |
| 2026-04-17 16:56 | 59.28683 | 16.12249 | 8273 ft | 271 kts | 62° |
| 2026-04-17 16:56 | 59.29537 | 16.15540 | 7817 ft | 270 kts | 62° |
| 2026-04-17 16:56 | 59.30383 | 16.18805 | 7391 ft | 269 kts | 62° |
| 2026-04-17 16:56 | 59.31226 | 16.22064 | 6990 ft | 267 kts | 62° |
| 2026-04-17 16:57 | 59.32053 | 16.25270 | 6839 ft | 261 kts | 62° |
| 2026-04-17 16:57 | 59.32867 | 16.28425 | 6644 ft | 265 kts | 62° |
| 2026-04-17 16:57 | 59.33608 | 16.31296 | 6332 ft | 268 kts | 62° |
| 2026-04-17 16:57 | 59.34445 | 16.34555 | 5977 ft | 267 kts | 62° |
| 2026-04-17 16:58 | 59.35280 | 16.37808 | 5624 ft | 264 kts | 62° |
| 2026-04-17 16:58 | 59.36102 | 16.41014 | 5276 ft | 261 kts | 62° |
| 2026-04-17 16:58 | 59.36911 | 16.44176 | 4928 ft | 260 kts | 62° |
| 2026-04-17 16:58 | 59.37704 | 16.47276 | 4590 ft | 258 kts | 62° |
| 2026-04-17 16:59 | 59.38524 | 16.50483 | 4249 ft | 256 kts | 62° |
| 2026-04-17 16:59 | 59.39360 | 16.53532 | 3891 ft | 251 kts | 56° |
| 2026-04-17 16:59 | 59.40648 | 16.55684 | 3534 ft | 241 kts | 28° |
| 2026-04-17 16:59 | 59.42171 | 16.56600 | 3247 ft | 217 kts | 12° |
| 2026-04-17 17:00 | 59.43603 | 16.57146 | 2990 ft | 205 kts | 13° |
| 2026-04-17 17:00 | 59.44992 | 16.57714 | 2735 ft | 203 kts | 13° |
| 2026-04-17 17:00 | 59.46357 | 16.58273 | 2478 ft | 203 kts | 13° |
| 2026-04-17 17:00 | 59.47666 | 16.58799 | 2176 ft | 174 kts | 13° |
| 2026-04-17 17:01 | 59.48774 | 16.59243 | 1944 ft | 156 kts | 13° |
| 2026-04-17 17:01 | 59.49844 | 16.59678 | 1890 ft | 158 kts | 13° |
| 2026-04-17 17:01 | 59.50945 | 16.60125 | 1663 ft | 153 kts | 13° |
| 2026-04-17 17:01 | 59.51883 | 16.60501 | 1441 ft | 128 kts | 14° |
| 2026-04-17 17:02 | 59.52721 | 16.60842 | 1251 ft | 119 kts | 15° |
| 2026-04-17 17:02 | 59.53525 | 16.61171 | 1063 ft | 119 kts | 13° |
| 2026-04-17 17:02 | 59.54344 | 16.61505 | 854 ft | 119 kts | 13° |
| 2026-04-17 17:02 | 59.55159 | 16.61834 | 660 ft | 121 kts | 13° |
| 2026-04-17 17:03 | 59.55983 | 16.62175 | 481 ft | 119 kts | 13° |
| 2026-04-17 17:03 | 59.56801 | 16.62508 | 312 ft | 121 kts | 12° |
| 2026-04-17 17:03 | 59.57625 | 16.62840 | 110 ft | 120 kts | 12° |
| 2026-04-17 17:03 | 59.58286 | 16.63107 | 21 ft | 114 kts | 13° |
| 2026-04-17 17:04 | 59.58959 | 16.63382 | 21 ft | 85 kts | 12° |
| 2026-04-17 17:04 | 59.59469 | 16.63587 | 22 ft | 66 kts | 11° |
| 2026-04-17 17:04 | 59.59835 | 16.63736 | 26 ft | 39 kts | 12° |
| 2026-04-17 17:04 | 59.60021 | 16.63815 | 24 ft | 19 kts | 12° |
| 2026-04-17 17:05 | 59.60124 | 16.63765 | 25 ft | 14 kts | 320° |
| 2026-04-17 17:05 | 59.60173 | 16.63621 | 29 ft | 14 kts | 287° |
| 2026-04-17 17:05 | 59.60165 | 16.63411 | 33 ft | 18 kts | 243° |
| 2026-04-17 17:05 | 59.60115 | 16.63235 | 34 ft | 12 kts | 277° |
| 2026-04-17 17:06 | 59.60146 | 16.63114 | 37 ft | 8 kts | 299° |
| 2026-04-17 17:06 | 59.60150 | 16.63032 | 39 ft | 6 kts | 242° |
| 2026-04-17 17:06 | 59.60121 | 16.62981 | 40 ft | 6 kts | 218° |
| 2026-04-17 17:06 | 59.60078 | 16.62910 | 39 ft | 8 kts | 219° |
| 2026-04-17 17:07 | 59.60077 | 16.62870 | 39 ft | 1 kts | 327° |
| 2026-04-17 17:07 | 59.60085 | 16.62868 | 39 ft | 2 kts | 348° |
| 2026-04-17 17:07 | 59.60097 | 16.62863 | 40 ft | 1 kts | 348° |
| 2026-04-17 17:07 | 59.60100 | 16.62862 | 40 ft | 0 kts | 348° |